Terminal Aerodrome Forecast
Issued by NWS

Home | Current Version | Previous Version | Text Only | Print | Product List | Glossary On
Versions: 1 2 3 4 5 6 7 8 9 10 11 12 13
000
FTUS44 KLZK 271100
TAFBPK
TAF
KBPK 271124Z 2712/2812 03004KT P6SM BKN100
     FM280000 09004KT P6SM OVC050
     FM280600 09005KT P6SM OVC020=

USA.gov is the U.S. government's official web portal to all federal, state and local government web resources and services.